Aérodrome :
LOGIN :

S'inscrire | Disclaimer

   EN    FR    IT 

 










Légende :    VFR   VFR Marginal   IFR   IFR Intensif   IFR Très Intensif
Visi : 
Plafond : 
>= 8 km
>= 3000ft
5 à 8 km
1000 à 3000 ft
1500m à 5 km
500 à 1000 ft
800 à 1500m
200 à 500 ft
< 800m
< 200 ft
Symboles :   Orages  Brouillard  Fortes neiges  Fortes précipitations  Vent > 20 kt
SIGMETs :   Divers  Orages  Givrage  Turbulence  Onde Orograph.  Cendres Volcan.







- Altitude de l'aérodrome : 147 ft
- Code IATA : DUS


EDDL - Düsseldorf Int.

DERNIER METAR :
  • 250620Z 04004KT 360V070 8000 FEW003 BKN008 13/10 Q1025 BECMG SCT012

METARs EXPIRÉS :
  • 250550Z 01003KT 330V070 5000 BR SCT003 BKN009 12/11 Q1025 BECMG SCT012
  • 250520Z 01004KT 340V040 1400 R23R/P2000N R23L/P2000N BR SCT002 BKN003 11/11 Q1024 BECMG 6000 SCT006
  • 250450Z 02005KT 5000 1200SE R05L/P2000N R05R/P2000N MIFG BR SCT002 BKN300 11/10 Q1024 BECMG 9999
  • 250420Z 35002KT 7000 MIFG FEW007 BKN300 11/10 Q1024 TEMPO BKN012
  • 250350Z 34002KT 8000 MIFG FEW008 SCT014 BKN300 11/10 Q1024 TEMPO BKN012

TAF COR TAF EDDL
Valide du 25 à 06h jusqu'au 26 à 12h UTC


250555Z 2506/2612 36005KT 9999 BKN009
BECMG 2506/2508 SCT015
BECMG 2522/2601 06003KT
Pas de NOTAMs connus pour ce terrain.



MET'MAP, la Météo Aéronautique d'un coup d'oeil ! - Copyright ORBIFLY Décembre 2007 - Disclaimer

ORBIFLY MET'MAP TEAM :

Programmation & Développement : Alexandra Zaïnal
Conception & Développement : Baudouin d'Aumeries
Co-Programmation & Développement : Marc-Olivier Méhu
Soutien technique & logistique : Manuel Goepfert

Contact : metmap@orbifly.com




SOURCES & CREDITS :

   NOAA